createdAt,value
2022-09-02T00:01:30.986Z,95616.91
2022-09-02T00:04:32.622Z,95615.13
2022-09-02T00:07:35.638Z,95623.97
2022-09-02T00:10:38.645Z,95626.97
2022-09-02T00:13:40.331Z,95619.13
2022-09-02T00:16:42.093Z,95616.66
2022-09-02T00:19:43.757Z,95605.78
2022-09-02T00:22:47.004Z,95609.38
2022-09-02T00:25:48.677Z,95604.09
2022-09-02T00:28:56.060Z,95598.50
2022-09-02T00:31:58.322Z,95595.69
2022-09-02T00:34:59.989Z,95592.69
2022-09-02T00:38:05.133Z,95592.59
2022-09-02T00:41:07.770Z,95590.13
2022-09-02T00:44:11.044Z,95590.81
2022-09-02T00:47:13.816Z,95590.69
2022-09-02T00:50:16.676Z,95590.34
2022-09-02T00:53:19.959Z,95583.41
2022-09-02T00:56:23.535Z,95588.94
2022-09-02T00:59:27.602Z,95583.88
2022-09-02T01:02:30.070Z,95586.97
2022-09-02T01:05:34.052Z,95586.47
2022-09-02T01:08:37.765Z,95573.75
2022-09-02T01:11:41.119Z,95584.03
2022-09-02T01:14:42.747Z,95591.00
2022-09-02T01:17:46.887Z,95587.78
2022-09-02T01:20:48.733Z,95595.72
2022-09-02T01:23:52.218Z,95597.97
2022-09-02T01:26:54.877Z,95591.44
2022-09-02T01:29:58.218Z,95591.63
2022-09-02T01:33:00.109Z,95591.56
2022-09-02T01:36:01.965Z,95592.69
2022-09-02T01:39:05.118Z,95584.06
2022-09-02T01:42:06.947Z,95583.00
2022-09-02T01:45:09.143Z,95593.91
2022-09-02T01:48:11.424Z,95586.63
2022-09-02T01:51:16.699Z,95588.81
2022-09-02T01:54:19.742Z,95585.91
2022-09-02T01:57:21.466Z,95585.78
2022-09-02T02:00:24.040Z,95577.06
2022-09-02T02:03:25.749Z,95576.94
2022-09-02T02:06:27.958Z,95580.03
2022-09-02T02:09:31.037Z,95565.59
2022-09-02T02:12:32.688Z,95563.06
2022-09-02T02:15:36.736Z,95554.38
2022-09-02T02:18:38.537Z,95558.63
2022-09-02T02:21:40.318Z,95557.09
2022-09-02T02:24:43.437Z,95558.19
2022-09-02T02:27:45.064Z,95554.41
2022-09-02T02:30:46.713Z,95552.44
2022-09-02T02:33:48.330Z,95548.94
2022-09-02T02:36:50.106Z,95547.22
2022-09-02T02:39:53.201Z,95547.91
2022-09-02T02:42:55.060Z,95548.94
2022-09-02T02:45:56.708Z,95553.19
2022-09-02T02:48:58.937Z,95551.25
2022-09-02T02:52:00.608Z,95554.84
2022-09-02T02:55:03.896Z,95555.66
2022-09-02T02:58:06.076Z,95546.28
2022-09-02T03:01:07.806Z,95538.94
2022-09-02T03:04:09.510Z,95543.03
2022-09-02T03:07:11.189Z,95551.59
2022-09-02T03:10:14.240Z,95543.81
2022-09-02T03:13:15.901Z,95539.53
2022-09-02T03:16:17.685Z,95548.94
2022-09-02T03:19:19.513Z,95538.75
2022-09-02T03:22:21.201Z,95540.66
2022-09-02T03:25:25.028Z,95532.13
2022-09-02T03:28:27.207Z,95532.03
2022-09-02T03:31:29.649Z,95530.09
2022-09-02T03:34:31.799Z,95536.75
2022-09-02T03:37:33.536Z,95530.19
2022-09-02T03:40:36.734Z,95532.88
2022-09-02T03:43:38.524Z,95527.50
2022-09-02T03:46:40.318Z,95530.94
2022-09-02T03:49:43.736Z,95524.75
2022-09-02T03:52:45.677Z,95531.00
2022-09-02T03:55:49.216Z,95529.31
2022-09-02T03:58:52.960Z,95527.09
2022-09-02T04:01:54.680Z,95529.44
2022-09-02T04:04:56.366Z,95522.19
2022-09-02T04:07:58.023Z,95517.59
2022-09-02T04:11:04.484Z,95520.84
2022-09-02T04:14:06.114Z,95524.28
2022-09-02T04:17:07.911Z,95521.91
2022-09-02T04:20:11.578Z,95516.56
2022-09-02T04:23:13.257Z,95513.16
2022-09-02T04:26:17.188Z,95522.41
2022-09-02T04:29:18.949Z,95530.41
2022-09-02T04:32:20.741Z,95524.53
2022-09-02T04:35:22.361Z,95525.03
2022-09-02T04:38:23.992Z,95524.53
2022-09-02T04:41:28.014Z,95522.19
2022-09-02T04:44:29.626Z,95528.72
2022-09-02T04:47:31.349Z,95524.50
2022-09-02T04:50:32.977Z,95521.47
2022-09-02T04:53:34.760Z,95522.97
2022-09-02T04:56:39.204Z,95517.19
2022-09-02T04:59:40.912Z,95525.00
2022-09-02T05:02:42.617Z,95514.53
2022-09-02T05:05:44.325Z,95513.00
2022-09-02T05:08:46.457Z,95519.22
2022-09-02T05:11:49.902Z,95522.69
2022-09-02T05:14:51.555Z,95527.94
2022-09-02T05:17:53.217Z,95525.56
2022-09-02T05:20:56.131Z,95522.53
2022-09-02T05:23:58.066Z,95522.41
2022-09-02T05:27:01.161Z,95523.91
2022-09-02T05:30:02.947Z,95518.50
2022-09-02T05:33:04.648Z,95520.72
2022-09-02T05:36:07.266Z,95525.06
2022-09-02T05:39:08.952Z,95527.00
2022-09-02T05:42:12.035Z,95529.28
2022-09-02T05:45:15.619Z,95529.16
2022-09-02T05:48:18.340Z,95531.69
2022-09-02T05:51:20.258Z,95524.59
2022-09-02T05:54:23.167Z,95528.44
2022-09-02T05:57:26.753Z,95520.66
2022-09-02T06:00:28.435Z,95515.94
2022-09-02T06:03:30.162Z,95526.03
2022-09-02T06:06:32.246Z,95524.38
2022-09-02T06:09:33.999Z,95513.59
2022-09-02T06:12:41.931Z,95524.38
2022-09-02T06:15:44.693Z,95527.94
2022-09-02T06:18:47.670Z,95522.09
2022-09-02T06:21:49.548Z,95519.09
2022-09-02T06:24:51.175Z,95531.13
2022-09-02T06:27:54.225Z,95533.03
2022-09-02T06:30:55.998Z,95534.50
2022-09-02T06:33:58.171Z,95516.75
2022-09-02T06:37:00.500Z,95519.09
2022-09-02T06:40:02.261Z,95527.53
2022-09-02T06:43:05.566Z,95523.78
2022-09-02T06:46:07.913Z,95520.13
2022-09-02T06:49:09.987Z,95524.56
2022-09-02T06:52:13.249Z,95521.38
2022-09-02T06:55:14.894Z,95517.06
2022-09-02T06:58:17.934Z,95525.91
2022-09-02T07:01:20.143Z,95527.09
2022-09-02T07:04:21.991Z,95534.09
2022-09-02T07:07:23.637Z,95542.53
2022-09-02T07:10:25.322Z,95526.97
2022-09-02T07:13:28.406Z,95526.56
2022-09-02T07:16:31.206Z,95520.03
2022-09-02T07:19:32.921Z,95530.38
2022-09-02T07:22:34.652Z,95531.16
2022-09-02T07:25:38.302Z,95523.31
2022-09-02T07:28:41.481Z,95530.50
2022-09-02T07:31:44.680Z,95533.66
2022-09-02T07:34:46.349Z,95529.66
2022-09-02T07:37:47.970Z,95531.22
2022-09-02T07:40:49.676Z,95525.44
2022-09-02T07:44:00.311Z,95531.81
2022-09-02T07:47:01.939Z,95527.75
2022-09-02T07:50:21.287Z,95526.06
2022-09-02T07:53:23.768Z,95523.56
2022-09-02T07:56:25.612Z,95521.50
2022-09-02T07:59:28.724Z,95525.13
2022-09-02T08:02:32.288Z,95527.31
2022-09-02T08:05:34.563Z,95534.19
2022-09-02T08:08:36.223Z,95539.25
2022-09-02T08:11:38.634Z,95531.28
2022-09-02T08:14:41.722Z,95531.69
2022-09-02T08:17:43.353Z,95527.66
2022-09-02T08:20:45.136Z,95540.13
2022-09-02T08:23:46.838Z,95526.81
2022-09-02T08:26:48.531Z,95529.84
2022-09-02T08:29:51.563Z,95527.06
2022-09-02T08:32:53.231Z,95524.28
2022-09-02T08:35:54.935Z,95530.03
2022-09-02T08:38:56.591Z,95531.66
2022-09-02T08:42:04.548Z,95536.19
2022-09-02T08:45:11.108Z,95523.59
2022-09-02T08:48:16.048Z,95521.00
2022-09-02T08:51:20.175Z,95517.78
2022-09-02T08:54:25.582Z,95518.84
2022-09-02T08:57:27.375Z,95513.25
2022-09-02T09:00:35.408Z,95510.38
2022-09-02T09:03:42.652Z,95510.69
2022-09-02T09:06:50.492Z,95509.72
2022-09-02T09:09:59.599Z,95514.75
2022-09-02T09:13:08.008Z,95507.63
2022-09-02T09:16:16.841Z,95505.09
2022-09-02T09:19:24.737Z,95510.56
2022-09-02T09:22:29.924Z,95501.13
2022-09-02T09:25:32.090Z,95499.44
2022-09-02T09:28:37.699Z,95497.66
2022-09-02T09:31:40.847Z,95499.59
2022-09-02T09:35:03.344Z,95503.31
2022-09-02T09:38:12.289Z,95500.25
2022-09-02T09:41:16.029Z,95499.34
2022-09-02T09:44:37.819Z,95487.00
2022-09-02T09:47:40.880Z,95490.81
2022-09-02T09:50:43.036Z,95500.13
2022-09-02T09:53:45.032Z,95501.25
2022-09-02T09:56:47.417Z,95492.66
2022-09-02T09:59:49.475Z,95472.34
2022-09-02T10:02:53.508Z,95482.03
2022-09-02T10:05:56.387Z,95480.16
2022-09-02T10:08:59.009Z,95489.41
2022-09-02T10:12:01.752Z,95479.28
2022-09-02T10:15:03.616Z,95475.72
2022-09-02T10:18:12.007Z,95478.22
2022-09-02T10:21:21.874Z,95474.94
2022-09-02T10:24:32.521Z,95472.22
2022-09-02T10:27:40.890Z,95473.25
2022-09-02T10:30:47.069Z,95472.81
2022-09-02T10:33:56.945Z,95464.97
2022-09-02T10:37:09.069Z,95470.06
2022-09-02T10:40:13.367Z,95461.72
2022-09-02T10:43:25.234Z,95464.69
2022-09-02T10:46:32.137Z,95462.34
2022-09-02T10:49:51.464Z,95458.38
2022-09-02T10:53:03.642Z,95448.63
2022-09-02T10:56:09.536Z,95464.91
2022-09-02T10:59:14.212Z,95457.47
2022-09-02T11:02:20.016Z,95462.31
2022-09-02T11:05:23.656Z,95450.50
2022-09-02T11:08:32.452Z,95455.06
2022-09-02T11:11:38.718Z,95454.47
2022-09-02T11:14:46.693Z,95451.91
2022-09-02T11:17:53.573Z,95448.56
2022-09-02T11:21:00.540Z,95436.03
2022-09-02T11:24:05.223Z,95437.91
2022-09-02T11:27:32.091Z,95440.66
2022-09-02T11:30:38.571Z,95438.34
2022-09-02T11:33:46.276Z,95445.91
2022-09-02T11:36:48.709Z,95439.34
2022-09-02T11:40:06.689Z,95432.22
2022-09-02T11:43:26.002Z,95435.19
2022-09-02T11:46:45.580Z,95427.31
2022-09-02T11:50:08.185Z,95424.22
2022-09-02T11:53:18.069Z,95420.59
2022-09-02T11:56:25.596Z,95423.78
2022-09-02T11:59:42.116Z,95428.19
2022-09-02T12:02:46.359Z,95418.22
2022-09-02T12:05:50.187Z,95420.69
2022-09-02T12:09:09.910Z,95417.88
2022-09-02T12:12:40.523Z,95399.25
2022-09-02T12:15:42.233Z,95419.94
2022-09-02T12:18:45.181Z,95414.66
2022-09-02T12:22:04.588Z,95420.41
2022-09-02T12:25:21.301Z,95414.31
2022-09-02T12:28:30.627Z,95403.47
2022-09-02T12:31:39.856Z,95396.03
2022-09-02T12:35:07.132Z,95405.63
2022-09-02T12:38:39.158Z,95405.16
2022-09-02T12:41:44.126Z,95392.38
2022-09-02T12:44:50.978Z,95389.50
2022-09-02T12:47:56.759Z,95388.56
2022-09-02T12:50:59.255Z,95383.56
2022-09-02T12:54:01.524Z,95386.75
2022-09-02T12:57:03.217Z,95388.19
2022-09-02T13:00:07.054Z,95388.16
2022-09-02T13:03:18.145Z,95389.03
2022-09-02T13:06:25.422Z,95371.03
2022-09-02T13:09:48.056Z,95378.50
2022-09-02T13:13:04.582Z,95380.31
2022-09-02T13:16:18.677Z,95380.81
2022-09-02T13:19:43.907Z,95369.44
2022-09-02T13:22:55.642Z,95368.84
2022-09-02T13:26:04.687Z,95367.03
2022-09-02T13:29:26.017Z,95366.25
2022-09-02T13:32:29.902Z,95362.09
2022-09-02T13:35:32.049Z,95357.00
2022-09-02T13:38:33.774Z,95361.00
2022-09-02T13:41:35.540Z,95359.16
2022-09-02T13:44:37.196Z,95351.88
2022-09-02T13:47:43.519Z,95360.00
2022-09-02T13:50:46.232Z,95351.69
2022-09-02T13:54:18.925Z,95358.19
2022-09-02T13:57:12.720Z,95365.88
2022-09-02T14:00:15.665Z,95356.25
2022-09-02T14:03:19.885Z,95355.47
2022-09-02T14:06:23.631Z,95357.66
2022-09-02T14:09:26.596Z,95349.78
2022-09-02T14:12:29.710Z,95353.63
2022-09-02T14:15:32.142Z,95356.19
2022-09-02T14:18:35.282Z,95353.03
2022-09-02T14:21:43.918Z,95351.53
2022-09-02T14:24:45.607Z,95349.09
2022-09-02T14:27:51.116Z,95353.47
2022-09-02T14:31:00.250Z,95350.41
2022-09-02T14:34:03.607Z,95343.19
2022-09-02T14:37:15.660Z,95342.88
2022-09-02T14:40:20.298Z,95345.56
2022-09-02T14:43:22.003Z,95334.00
2022-09-02T14:46:26.078Z,95337.38
2022-09-02T14:49:30.952Z,95341.47
2022-09-02T14:52:34.155Z,95327.56
2022-09-02T14:55:46.640Z,95333.22
2022-09-02T14:58:48.954Z,95330.63
2022-09-02T15:01:51.927Z,95325.13
2022-09-02T15:04:55.601Z,95324.78
2022-09-02T15:07:57.292Z,95320.00
2022-09-02T15:10:59.861Z,95321.75
2022-09-02T15:14:01.652Z,95324.63
2022-09-02T15:17:03.781Z,95323.69
2022-09-02T15:20:07.574Z,95315.25
2022-09-02T15:23:12.773Z,95320.69
2022-09-02T15:26:15.033Z,95317.66
2022-09-02T15:29:16.719Z,95309.31
2022-09-02T15:32:18.467Z,95310.13
2022-09-02T15:35:21.484Z,95317.72
2022-09-02T15:38:23.167Z,95319.25
2022-09-02T15:41:27.271Z,95319.25
2022-09-02T15:44:29.294Z,95312.16
2022-09-02T15:47:31.048Z,95321.09
2022-09-02T15:50:34.310Z,95312.88
2022-09-02T15:53:36.156Z,95308.78
2022-09-02T15:56:39.056Z,95301.44
2022-09-02T15:59:40.716Z,95304.00
2022-09-02T16:02:42.455Z,95295.50
2022-09-02T16:05:45.519Z,95296.72
2022-09-02T16:08:47.459Z,95306.97
2022-09-02T16:11:49.942Z,95298.72
2022-09-02T16:14:51.609Z,95298.50
2022-09-02T16:17:53.280Z,95297.50
2022-09-02T16:20:56.729Z,95302.88
2022-09-02T16:23:58.534Z,95298.75
2022-09-02T16:27:00.154Z,95288.56
2022-09-02T16:30:01.768Z,95300.78
2022-09-02T16:33:03.420Z,95297.50
2022-09-02T16:36:07.579Z,95289.91
2022-09-02T16:39:09.811Z,95292.34
2022-09-02T16:42:11.486Z,95290.25
2022-09-02T16:45:13.232Z,95287.75
2022-09-02T16:48:15.117Z,95288.22
2022-09-02T16:51:18.590Z,95291.72
2022-09-02T16:54:21.367Z,95282.44
2022-09-02T16:57:33.669Z,95284.38
2022-09-02T17:00:35.464Z,95273.19
2022-09-02T17:03:37.171Z,95272.41
2022-09-02T17:06:42.332Z,95275.34
2022-09-02T17:09:44.158Z,95268.84
2022-09-02T17:12:45.761Z,95267.34
2022-09-02T17:15:48.813Z,95273.69
2022-09-02T17:18:50.497Z,95266.50
2022-09-02T17:21:56.786Z,95274.75
2022-09-02T17:24:58.455Z,95275.31
2022-09-02T17:28:00.084Z,95278.00
2022-09-02T17:31:01.803Z,95278.69
2022-09-02T17:34:04.579Z,95269.88
2022-09-02T17:37:07.655Z,95271.22
2022-09-02T17:40:09.615Z,95270.78
2022-09-02T17:43:11.303Z,95263.63
2022-09-02T17:46:13.047Z,95259.66
2022-09-02T17:49:17.322Z,95261.31
2022-09-02T17:52:21.932Z,95262.47
2022-09-02T17:55:23.575Z,95252.06
2022-09-02T17:58:25.837Z,95249.91
2022-09-02T18:01:31.309Z,95252.31
2022-09-02T18:04:38.384Z,95249.25
2022-09-02T18:07:43.364Z,95257.25
2022-09-02T18:10:49.047Z,95255.81
2022-09-02T18:13:56.303Z,95258.84
2022-09-02T18:17:01.881Z,95263.38
2022-09-02T18:20:07.008Z,95260.13
2022-09-02T18:23:24.653Z,95258.47
2022-09-02T18:26:30.837Z,95258.69
2022-09-02T18:29:42.271Z,95256.69
2022-09-02T18:33:02.917Z,95258.69
2022-09-02T18:36:10.610Z,95271.75
2022-09-02T18:39:33.304Z,95276.34
2022-09-02T18:42:42.841Z,95274.84
2022-09-02T18:45:47.581Z,95277.47
2022-09-02T18:48:53.524Z,95279.00
2022-09-02T18:51:58.929Z,95280.13
2022-09-02T18:55:06.502Z,95284.59
2022-09-02T18:58:10.379Z,95282.19
2022-09-02T19:01:16.631Z,95283.84
2022-09-02T19:04:18.606Z,95281.44
2022-09-02T19:07:20.762Z,95290.66
2022-09-02T19:10:24.110Z,95290.44
2022-09-02T19:13:25.876Z,95293.13
2022-09-02T19:16:28.698Z,95290.22
2022-09-02T19:19:30.736Z,95287.91
2022-09-02T19:22:34.059Z,95282.66
2022-09-02T19:25:37.396Z,95292.91
2022-09-02T19:28:39.396Z,95285.25
2022-09-02T19:31:42.591Z,95291.72
2022-09-02T19:34:45.587Z,95290.25
2022-09-02T19:37:51.509Z,95271.47
2022-09-02T19:40:55.035Z,95280.22
2022-09-02T19:43:56.985Z,95277.69
2022-09-02T19:50:20.693Z,95287.31
2022-09-02T19:53:23.754Z,95281.09
2022-09-02T19:56:27.155Z,95272.97
2022-09-02T19:59:29.015Z,95276.66
2022-09-02T20:02:30.833Z,95279.91
2022-09-02T20:05:32.615Z,95276.88
2022-09-02T20:08:34.314Z,95278.28
2022-09-02T20:11:37.365Z,95279.63
2022-09-02T20:14:42.805Z,95281.47
2022-09-02T20:17:44.641Z,95274.25
2022-09-02T20:20:47.420Z,95271.41
2022-09-02T20:23:49.101Z,95264.91
2022-09-02T20:26:55.653Z,95264.53
2022-09-02T20:30:03.613Z,95271.03
2022-09-02T20:33:11.376Z,95275.38
2022-09-02T20:36:21.059Z,95270.78
2022-09-02T20:39:31.348Z,95267.25
2022-09-02T20:42:43.138Z,95266.22
2022-09-02T20:45:48.026Z,95274.25
2022-09-02T20:48:57.035Z,95275.63
2022-09-02T20:52:02.365Z,95271.88
2022-09-02T20:55:09.255Z,95269.50
2022-09-02T20:58:20.208Z,95269.28
2022-09-02T21:01:24.548Z,95269.38
2022-09-02T21:04:34.218Z,95268.53
2022-09-02T21:07:38.952Z,95262.84
2022-09-02T21:10:45.813Z,95262.25
2022-09-02T21:13:51.505Z,95262.59
2022-09-02T21:16:57.766Z,95267.47
2022-09-02T21:20:06.755Z,95270.88
2022-09-02T21:23:11.039Z,95261.50
2022-09-02T21:26:15.601Z,95263.88
2022-09-02T21:29:21.487Z,95255.13
2022-09-02T21:32:28.519Z,95266.28
2022-09-02T21:35:35.411Z,95251.09
2022-09-02T21:38:39.332Z,95249.50
2022-09-02T21:41:44.030Z,95242.09
2022-09-02T21:44:53.043Z,95247.88
2022-09-02T21:47:59.006Z,95247.09
2022-09-02T21:51:01.573Z,95234.16
2022-09-02T21:54:26.694Z,95240.72
2022-09-02T21:57:40.087Z,95225.19
2022-09-02T22:00:45.806Z,95222.44
2022-09-02T22:03:49.667Z,95227.22
2022-09-02T22:06:56.844Z,95217.13
2022-09-02T22:10:03.257Z,95215.63
2022-09-02T22:13:05.513Z,95221.34
2022-09-02T22:16:16.014Z,95236.47
2022-09-02T22:19:18.675Z,95231.84
2022-09-02T22:22:21.879Z,95238.47
2022-09-02T22:25:24.267Z,95243.06
2022-09-02T22:28:30.101Z,95234.06
2022-09-02T22:31:35.884Z,95230.03
2022-09-02T22:34:42.340Z,95237.63
2022-09-02T22:37:49.178Z,95234.53
2022-09-02T22:40:57.102Z,95248.16
2022-09-02T22:44:02.829Z,95243.69
2022-09-02T22:47:08.583Z,95246.16
2022-09-02T22:50:12.305Z,95252.97
2022-09-02T22:53:13.999Z,95258.19
2022-09-02T22:56:21.575Z,95244.91
2022-09-02T22:59:34.008Z,95232.41
2022-09-02T23:02:38.697Z,95234.97
2022-09-02T23:05:45.195Z,95235.56
2022-09-02T23:08:47.036Z,95240.78
2022-09-02T23:11:55.609Z,95234.88
2022-09-02T23:15:05.891Z,95232.06
2022-09-02T23:18:12.625Z,95229.94
2022-09-02T23:21:16.589Z,95234.88
2022-09-02T23:24:25.315Z,95240.78
2022-09-02T23:27:31.632Z,95238.97
2022-09-02T23:30:33.254Z,95238.09
2022-09-02T23:33:46.389Z,95233.59
2022-09-02T23:36:53.380Z,95226.84
2022-09-02T23:40:00.362Z,95233.22
2022-09-02T23:43:02.244Z,95227.00
2022-09-02T23:46:09.318Z,95218.34
2022-09-02T23:49:17.823Z,95227.97
2022-09-02T23:52:24.126Z,95220.19
2022-09-02T23:55:30.810Z,95222.25
2022-09-02T23:58:46.266Z,95218.81
